sensor_id;sensor_type;location;lat;lon;timestamp;pressure;altitude;pressure_sealevel;temperature;humidity
54910;BME280;63189;51.240;9.964;2023-04-16T00:02:11;97780.66;;;7.81;100.00
54910;BME280;63189;51.240;9.964;2023-04-16T00:04:36;97770.34;;;7.78;100.00
54910;BME280;63189;51.240;9.964;2023-04-16T00:07:02;97774.59;;;7.81;100.00
54910;BME280;63189;51.240;9.964;2023-04-16T00:09:27;97782.38;;;7.82;100.00
54910;BME280;63189;51.240;9.964;2023-04-16T00:11:52;97784.13;;;7.80;100.00
54910;BME280;63189;51.240;9.964;2023-04-16T00:14:18;97794.50;;;7.80;100.00
54910;BME280;63189;51.240;9.964;2023-04-16T00:16:43;97782.50;;;7.76;100.00
54910;BME280;63189;51.240;9.964;2023-04-16T00:19:08;97787.56;;;7.81;100.00
54910;BME280;63189;51.240;9.964;2023-04-16T00:21:34;97788.50;;;7.78;100.00
54910;BME280;63189;51.240;9.964;2023-04-16T00:23:59;97787.56;;;7.81;100.00
54910;BME280;63189;51.240;9.964;2023-04-16T00:26:24;97785.91;;;7.78;100.00
54910;BME280;63189;51.240;9.964;2023-04-16T00:28:50;97787.59;;;7.79;100.00
54910;BME280;63189;51.240;9.964;2023-04-16T00:31:15;97790.25;;;7.78;100.00
54910;BME280;63189;51.240;9.964;2023-04-16T00:33:40;97781.59;;;7.77;100.00
54910;BME280;63189;51.240;9.964;2023-04-16T00:36:08;97783.38;;;7.75;100.00
54910;BME280;63189;51.240;9.964;2023-04-16T00:38:33;97786.84;;;7.76;100.00
54910;BME280;63189;51.240;9.964;2023-04-16T00:41:00;97786.06;;;7.72;100.00
54910;BME280;63189;51.240;9.964;2023-04-16T00:43:26;97791.22;;;7.74;100.00
54910;BME280;63189;51.240;9.964;2023-04-16T00:45:52;97791.22;;;7.74;100.00
54910;BME280;63189;51.240;9.964;2023-04-16T00:48:19;97786.06;;;7.72;100.00
54910;BME280;63189;51.240;9.964;2023-04-16T00:50:46;97786.97;;;7.70;100.00
54910;BME280;63189;51.240;9.964;2023-04-16T00:53:13;97779.16;;;7.71;100.00
54910;BME280;63189;51.240;9.964;2023-04-16T00:55:39;97782.63;;;7.70;100.00
54910;BME280;63189;51.240;9.964;2023-04-16T00:58:05;97784.34;;;7.70;100.00
54910;BME280;63189;51.240;9.964;2023-04-16T01:00:30;97783.47;;;7.71;100.00
54910;BME280;63189;51.240;9.964;2023-04-16T01:02:57;97787.75;;;7.73;100.00
54910;BME280;63189;51.240;9.964;2023-04-16T01:05:24;97786.91;;;7.73;100.00
54910;BME280;63189;51.240;9.964;2023-04-16T01:07:49;97777.44;;;7.70;100.00
54910;BME280;63189;51.240;9.964;2023-04-16T01:10:15;97787.81;;;7.70;100.00
54910;BME280;63189;51.240;9.964;2023-04-16T01:12:40;97792.19;;;7.68;100.00
54910;BME280;63189;51.240;9.964;2023-04-16T01:15:06;97792.19;;;7.68;100.00
54910;BME280;63189;51.240;9.964;2023-04-16T01:17:31;97796.44;;;7.71;100.00
54910;BME280;63189;51.240;9.964;2023-04-16T01:19:58;97790.41;;;7.70;100.00
54910;BME280;63189;51.240;9.964;2023-04-16T01:22:24;97794.00;;;7.65;100.00
54910;BME280;63189;51.240;9.964;2023-04-16T01:24:49;97789.66;;;7.65;100.00
54910;BME280;63189;51.240;9.964;2023-04-16T01:27:14;97794.84;;;7.65;100.00
54910;BME280;63189;51.240;9.964;2023-04-16T01:29:40;97799.19;;;7.65;100.00
54910;BME280;63189;51.240;9.964;2023-04-16T01:32:05;97793.16;;;7.64;100.00
54910;BME280;63189;51.240;9.964;2023-04-16T01:34:31;97804.41;;;7.63;100.00
54910;BME280;63189;51.240;9.964;2023-04-16T01:36:56;97803.53;;;7.64;100.00
54910;BME280;63189;51.240;9.964;2023-04-16T01:39:21;97810.41;;;7.65;100.00
54910;BME280;63189;51.240;9.964;2023-04-16T01:41:47;97807.88;;;7.64;100.00
54910;BME280;63189;51.240;9.964;2023-04-16T01:44:12;97800.13;;;7.62;100.00
54910;BME280;63189;51.240;9.964;2023-04-16T01:46:38;97807.91;;;7.61;100.00
54910;BME280;63189;51.240;9.964;2023-04-16T01:49:04;97807.06;;;7.62;100.00
54910;BME280;63189;51.240;9.964;2023-04-16T01:51:31;97806.19;;;7.60;100.00
54910;BME280;63189;51.240;9.964;2023-04-16T01:53:57;97808.84;;;7.58;100.00
54910;BME280;63189;51.240;9.964;2023-04-16T01:56:22;97809.69;;;7.59;100.00
54910;BME280;63189;51.240;9.964;2023-04-16T01:58:47;97806.25;;;7.58;100.00
54910;BME280;63189;51.240;9.964;2023-04-16T02:01:13;97806.19;;;7.61;100.00
54910;BME280;63189;51.240;9.964;2023-04-16T02:03:38;97803.66;;;7.58;100.00
54910;BME280;63189;51.240;9.964;2023-04-16T02:06:04;97808.84;;;7.58;100.00
54910;BME280;63189;51.240;9.964;2023-04-16T02:08:30;97807.16;;;7.56;100.00
54910;BME280;63189;51.240;9.964;2023-04-16T02:10:56;97806.34;;;7.53;100.00
54910;BME280;63189;51.240;9.964;2023-04-16T02:13:21;97809.78;;;7.54;100.00
54910;BME280;63189;51.240;9.964;2023-04-16T02:15:48;97810.59;;;7.56;100.00
54910;BME280;63189;51.240;9.964;2023-04-16T02:18:14;97810.69;;;7.53;100.00
54910;BME280;63189;51.240;9.964;2023-04-16T02:20:41;97814.09;;;7.55;100.00
54910;BME280;63189;51.240;9.964;2023-04-16T02:23:07;97821.06;;;7.53;100.00
54910;BME280;63189;51.240;9.964;2023-04-16T02:25:38;97823.59;;;7.56;100.00
54910;BME280;63189;51.240;9.964;2023-04-16T02:28:05;97821.94;;;7.52;100.00
54910;BME280;63189;51.240;9.964;2023-04-16T02:30:30;97824.53;;;7.52;100.00
54910;BME280;63189;51.240;9.964;2023-04-16T02:32:55;97823.69;;;7.51;100.00
54910;BME280;63189;51.240;9.964;2023-04-16T02:35:21;97828.06;;;7.48;100.00
54910;BME280;63189;51.240;9.964;2023-04-16T02:37:46;97834.09;;;7.48;100.00
54910;BME280;63189;51.240;9.964;2023-04-16T02:40:11;97825.44;;;7.49;100.00
54910;BME280;63189;51.240;9.964;2023-04-16T02:42:37;97831.59;;;7.45;100.00
54910;BME280;63189;51.240;9.964;2023-04-16T02:45:02;97835.09;;;7.43;100.00
54910;BME280;63189;51.240;9.964;2023-04-16T02:47:27;97833.44;;;7.40;100.00
54910;BME280;63189;51.240;9.964;2023-04-16T02:49:52;97833.44;;;7.39;100.00
54910;BME280;63189;51.240;9.964;2023-04-16T02:52:18;97833.50;;;7.36;100.00
54910;BME280;63189;51.240;9.964;2023-04-16T02:54:43;97841.22;;;7.39;100.00
54910;BME280;63189;51.240;9.964;2023-04-16T02:57:08;97842.09;;;7.38;100.00
54910;BME280;63189;51.240;9.964;2023-04-16T02:59:35;97840.41;;;7.37;100.00
54910;BME280;63189;51.240;9.964;2023-04-16T03:02:00;97837.84;;;7.35;100.00
54910;BME280;63189;51.240;9.964;2023-04-16T03:04:25;97842.16;;;7.35;100.00
54910;BME280;63189;51.240;9.964;2023-04-16T03:06:50;97843.94;;;7.33;100.00
54910;BME280;63189;51.240;9.964;2023-04-16T03:09:16;97842.25;;;7.32;100.00
54910;BME280;63189;51.240;9.964;2023-04-16T03:11:41;97844.78;;;7.33;100.00
54910;BME280;63189;51.240;9.964;2023-04-16T03:14:06;97848.28;;;7.32;100.00
54910;BME280;63189;51.240;9.964;2023-04-16T03:16:32;97844.78;;;7.33;100.00
54910;BME280;63189;51.240;9.964;2023-04-16T03:18:57;97847.34;;;7.35;100.00
54910;BME280;63189;51.240;9.964;2023-04-16T03:21:22;97841.41;;;7.28;100.00
54910;BME280;63189;51.240;9.964;2023-04-16T03:23:47;97847.47;;;7.30;100.00
54910;BME280;63189;51.240;9.964;2023-04-16T03:26:13;97852.66;;;7.29;100.00
54910;BME280;63189;51.240;9.964;2023-04-16T03:28:38;97854.47;;;7.25;100.00
54910;BME280;63189;51.240;9.964;2023-04-16T03:31:03;97843.28;;;7.21;100.00
54910;BME280;63189;51.240;9.964;2023-04-16T03:33:29;97850.19;;;7.22;100.00
54910;BME280;63189;51.240;9.964;2023-04-16T03:35:57;97863.16;;;7.22;100.00
54910;BME280;63189;51.240;9.964;2023-04-16T03:38:24;97857.97;;;7.22;100.00
54910;BME280;63189;51.240;9.964;2023-04-16T03:40:52;97857.97;;;7.22;100.00
54910;BME280;63189;51.240;9.964;2023-04-16T03:43:17;97864.94;;;7.20;100.00
54910;BME280;63189;51.240;9.964;2023-04-16T03:45:44;97861.47;;;7.20;100.00
54910;BME280;63189;51.240;9.964;2023-04-16T03:48:09;97865.81;;;7.19;100.00
54910;BME280;63189;51.240;9.964;2023-04-16T03:50:34;97864.94;;;7.20;100.00
54910;BME280;63189;51.240;9.964;2023-04-16T03:53:00;97860.69;;;7.15;100.00
54910;BME280;63189;51.240;9.964;2023-04-16T03:55:25;97868.47;;;7.15;100.00
54910;BME280;63189;51.240;9.964;2023-04-16T03:57:50;97863.31;;;7.13;100.00
54910;BME280;63189;51.240;9.964;2023-04-16T04:00:15;97863.31;;;7.13;100.00
54910;BME280;63189;51.240;9.964;2023-04-16T04:02:41;97874.59;;;7.11;100.00
54910;BME280;63189;51.240;9.964;2023-04-16T04:05:06;97872.81;;;7.14;100.00
54910;BME280;63189;51.240;9.964;2023-04-16T04:07:32;97872.00;;;7.11;100.00
54910;BME280;63189;51.240;9.964;2023-04-16T04:09:57;97876.34;;;7.10;100.00
54910;BME280;63189;51.240;9.964;2023-04-16T04:12:22;97880.69;;;7.08;100.00
54910;BME280;63189;51.240;9.964;2023-04-16T04:14:48;97871.19;;;7.09;100.00
54910;BME280;63189;51.240;9.964;2023-04-16T04:17:13;97874.63;;;7.09;100.00
54910;BME280;63189;51.240;9.964;2023-04-16T04:19:38;97882.41;;;7.09;100.00
54910;BME280;63189;51.240;9.964;2023-04-16T04:22:04;97878.94;;;7.10;100.00
54910;BME280;63189;51.240;9.964;2023-04-16T04:24:29;97891.13;;;7.05;100.00
54910;BME280;63189;51.240;9.964;2023-04-16T04:26:54;97887.59;;;7.09;100.00
54910;BME280;63189;51.240;9.964;2023-04-16T04:29:19;97897.13;;;7.07;100.00
54910;BME280;63189;51.240;9.964;2023-04-16T04:31:45;97894.53;;;7.07;100.00
54910;BME280;63189;51.240;9.964;2023-04-16T04:34:10;97901.47;;;7.05;100.00
54910;BME280;63189;51.240;9.964;2023-04-16T04:36:35;97899.78;;;7.04;100.00
54910;BME280;63189;51.240;9.964;2023-04-16T04:39:01;97900.69;;;7.02;100.00
54910;BME280;63189;51.240;9.964;2023-04-16T04:41:26;97898.16;;;6.99;100.00
54910;BME280;63189;51.240;9.964;2023-04-16T04:43:51;97899.88;;;6.98;100.00
54910;BME280;63189;51.240;9.964;2023-04-16T04:46:17;97905.94;;;6.99;100.00
54910;BME280;63189;51.240;9.964;2023-04-16T04:48:42;97909.38;;;6.99;100.00
54910;BME280;63189;51.240;9.964;2023-04-16T04:51:07;97908.50;;;7.00;100.00
54910;BME280;63189;51.240;9.964;2023-04-16T04:53:32;97909.41;;;6.96;100.00
54910;BME280;63189;51.240;9.964;2023-04-16T04:55:58;97915.50;;;6.93;100.00
54910;BME280;63189;51.240;9.964;2023-04-16T04:58:23;97918.97;;;6.92;100.00
54910;BME280;63189;51.240;9.964;2023-04-16T05:00:48;97918.09;;;6.93;100.00
54910;BME280;63189;51.240;9.964;2023-04-16T05:03:20;97918.97;;;6.94;100.00
54910;BME280;63189;51.240;9.964;2023-04-16T05:05:46;97925.91;;;6.92;100.00
54910;BME280;63189;51.240;9.964;2023-04-16T05:08:11;97933.66;;;6.93;100.00
54910;BME280;63189;51.240;9.964;2023-04-16T05:10:36;97932.84;;;6.90;100.00
54910;BME280;63189;51.240;9.964;2023-04-16T05:13:02;97933.72;;;6.90;100.00
54910;BME280;63189;51.240;9.964;2023-04-16T05:15:27;97939.75;;;6.91;100.00
54910;BME280;63189;51.240;9.964;2023-04-16T05:17:53;97929.44;;;6.88;100.00
54910;BME280;63189;51.240;9.964;2023-04-16T05:20:22;97932.91;;;6.85;100.00
54910;BME280;63189;51.240;9.964;2023-04-16T05:22:49;97938.91;;;6.87;100.00
54910;BME280;63189;51.240;9.964;2023-04-16T05:25:14;97938.97;;;6.84;100.00
54910;BME280;63189;51.240;9.964;2023-04-16T05:27:41;97938.06;;;6.87;100.00
54910;BME280;63189;51.240;9.964;2023-04-16T05:30:07;97942.44;;;6.83;100.00
54910;BME280;63189;51.240;9.964;2023-04-16T05:32:32;97941.53;;;6.86;100.00
54910;BME280;63189;51.240;9.964;2023-04-16T05:34:57;97948.47;;;6.85;100.00
54910;BME280;63189;51.240;9.964;2023-04-16T05:37:23;97946.78;;;6.83;100.00
54910;BME280;63189;51.240;9.964;2023-04-16T05:39:48;97944.28;;;6.78;100.00
54910;BME280;63189;51.240;9.964;2023-04-16T05:42:13;97953.72;;;6.81;100.00
54910;BME280;63189;51.240;9.964;2023-04-16T05:44:39;97964.06;;;6.82;100.00
54910;BME280;63189;51.240;9.964;2023-04-16T05:47:05;97960.63;;;6.82;100.00
54910;BME280;63189;51.240;9.964;2023-04-16T05:49:34;97967.50;;;6.83;100.00
54910;BME280;63189;51.240;9.964;2023-04-16T05:52:00;97969.25;;;6.82;100.00
54910;BME280;63189;51.240;9.964;2023-04-16T05:54:25;97975.31;;;6.81;100.00
54910;BME280;63189;51.240;9.964;2023-04-16T05:56:51;97977.06;;;6.81;100.00
54910;BME280;63189;51.240;9.964;2023-04-16T05:59:16;97979.59;;;6.84;100.00
54910;BME280;63189;51.240;9.964;2023-04-16T06:01:41;97983.13;;;6.80;100.00
54910;BME280;63189;51.240;9.964;2023-04-16T06:04:06;97980.53;;;6.80;100.00
54910;BME280;63189;51.240;9.964;2023-04-16T06:06:32;97992.66;;;6.78;100.00
54910;BME280;63189;51.240;9.964;2023-04-16T06:08:58;97985.75;;;6.75;100.00
54910;BME280;63189;51.240;9.964;2023-04-16T06:11:23;97981.47;;;6.73;100.00
54910;BME280;63189;51.240;9.964;2023-04-16T06:13:49;97984.09;;;6.71;100.00
54910;BME280;63189;51.240;9.964;2023-04-16T06:16:15;97986.72;;;6.70;100.00
54910;BME280;63189;51.240;9.964;2023-04-16T06:18:41;97985.00;;;6.69;100.00
54910;BME280;63189;51.240;9.964;2023-04-16T06:21:06;98002.28;;;6.66;100.00
54910;BME280;63189;51.240;9.964;2023-04-16T06:23:31;97992.88;;;6.61;100.00
54910;BME280;63189;51.240;9.964;2023-04-16T06:25:57;97995.47;;;6.61;100.00
54910;BME280;63189;51.240;9.964;2023-04-16T06:28:22;97991.19;;;6.60;100.00
54910;BME280;63189;51.240;9.964;2023-04-16T06:30:48;97997.25;;;6.57;100.00
54910;BME280;63189;51.240;9.964;2023-04-16T06:33:13;98002.44;;;6.57;100.00
54910;BME280;63189;51.240;9.964;2023-04-16T06:35:38;98018.84;;;6.58;100.00
54910;BME280;63189;51.240;9.964;2023-04-16T06:38:04;98014.53;;;6.55;100.00
54910;BME280;63189;51.240;9.964;2023-04-16T06:40:29;98017.97;;;6.56;100.00
54910;BME280;63189;51.240;9.964;2023-04-16T06:42:54;98018.88;;;6.55;100.00
54910;BME280;63189;51.240;9.964;2023-04-16T06:45:20;98020.59;;;6.54;100.00
54910;BME280;63189;51.240;9.964;2023-04-16T06:47:45;98012.00;;;6.52;100.00
54910;BME280;63189;51.240;9.964;2023-04-16T06:50:12;98017.13;;;6.57;100.00
54910;BME280;63189;51.240;9.964;2023-04-16T06:52:37;98018.00;;;6.54;100.00
54910;BME280;63189;51.240;9.964;2023-04-16T06:55:03;98021.47;;;6.53;100.00
54910;BME280;63189;51.240;9.964;2023-04-16T06:57:28;98018.88;;;6.55;100.00
54910;BME280;63189;51.240;9.964;2023-04-16T06:59:53;98022.31;;;6.57;100.00
54910;BME280;63189;51.240;9.964;2023-04-16T07:02:19;98030.06;;;6.58;100.00
54910;BME280;63189;51.240;9.964;2023-04-16T07:04:44;98024.91;;;6.55;100.00
54910;BME280;63189;51.240;9.964;2023-04-16T07:07:09;98022.38;;;6.51;100.00
54910;BME280;63189;51.240;9.964;2023-04-16T07:09:38;98024.13;;;6.50;100.00
54910;BME280;63189;51.240;9.964;2023-04-16T07:12:03;98030.19;;;6.49;100.00
54910;BME280;63189;51.240;9.964;2023-04-16T07:14:29;98026.72;;;6.50;100.00
54910;BME280;63189;51.240;9.964;2023-04-16T07:16:54;98034.44;;;6.53;100.00
54910;BME280;63189;51.240;9.964;2023-04-16T07:19:19;98038.72;;;6.54;100.00
54910;BME280;63189;51.240;9.964;2023-04-16T07:21:45;98037.94;;;6.51;100.00
54910;BME280;63189;51.240;9.964;2023-04-16T07:24:10;98042.25;;;6.50;100.00
54910;BME280;63189;51.240;9.964;2023-04-16T07:26:36;98051.75;;;6.50;100.00
54910;BME280;63189;51.240;9.964;2023-04-16T07:29:01;98050.84;;;6.52;100.00
54910;BME280;63189;51.240;9.964;2023-04-16T07:31:27;98045.72;;;6.49;100.00
54910;BME280;63189;51.240;9.964;2023-04-16T07:33:52;98042.25;;;6.50;100.00
54910;BME280;63189;51.240;9.964;2023-04-16T07:36:17;98052.66;;;6.47;100.00
54910;BME280;63189;51.240;9.964;2023-04-16T07:38:43;98061.28;;;6.48;100.00
54910;BME280;63189;51.240;9.964;2023-04-16T07:41:08;98057.84;;;6.47;100.00
54910;BME280;63189;51.240;9.964;2023-04-16T07:43:34;98063.00;;;6.46;100.00
54910;BME280;63189;51.240;9.964;2023-04-16T07:45:59;98064.75;;;6.45;100.00
54910;BME280;63189;51.240;9.964;2023-04-16T07:48:24;98072.53;;;6.47;100.00
54910;BME280;63189;51.240;9.964;2023-04-16T07:50:50;98071.69;;;6.43;100.00
54910;BME280;63189;51.240;9.964;2023-04-16T07:53:15;98072.53;;;6.44;100.00
54910;BME280;63189;51.240;9.964;2023-04-16T07:55:40;98077.72;;;6.44;100.00
54910;BME280;63189;51.240;9.964;2023-04-16T07:58:06;98069.97;;;6.42;100.00
54910;BME280;63189;51.240;9.964;2023-04-16T08:00:33;98084.63;;;6.46;100.00
54910;BME280;63189;51.240;9.964;2023-04-16T08:02:59;98083.72;;;6.47;100.00
54910;BME280;63189;51.240;9.964;2023-04-16T08:05:24;98085.44;;;6.48;100.00
54910;BME280;63189;51.240;9.964;2023-04-16T08:07:49;98091.47;;;6.50;100.00
54910;BME280;63189;51.240;9.964;2023-04-16T08:10:16;98095.81;;;6.48;100.00
54910;BME280;63189;51.240;9.964;2023-04-16T08:12:41;98099.28;;;6.47;100.00
54910;BME280;63189;51.240;9.964;2023-04-16T08:15:07;98100.09;;;6.49;100.00
54910;BME280;63189;51.240;9.964;2023-04-16T08:17:32;98093.25;;;6.44;100.00
54910;BME280;63189;51.240;9.964;2023-04-16T08:19:59;98113.09;;;6.46;100.00
54910;BME280;63189;51.240;9.964;2023-04-16T08:22:24;98113.13;;;6.43;100.00
54910;BME280;63189;51.240;9.964;2023-04-16T08:24:50;98119.13;;;6.45;100.00
54910;BME280;63189;51.240;9.964;2023-04-16T08:27:16;98130.44;;;6.38;100.00
54910;BME280;63189;51.240;9.964;2023-04-16T08:29:44;98120.97;;;6.34;100.00
54910;BME280;63189;51.240;9.964;2023-04-16T08:32:12;98133.94;;;6.34;100.00
54910;BME280;63189;51.240;9.964;2023-04-16T08:34:37;98132.22;;;6.33;100.00
54910;BME280;63189;51.240;9.964;2023-04-16T08:37:05;98135.72;;;6.29;100.00
54910;BME280;63189;51.240;9.964;2023-04-16T08:39:31;98139.19;;;6.29;100.00
54910;BME280;63189;51.240;9.964;2023-04-16T08:42:01;98132.22;;;6.33;100.00
54910;BME280;63189;51.240;9.964;2023-04-16T08:44:34;98145.19;;;6.31;100.00
54910;BME280;63189;51.240;9.964;2023-04-16T08:47:02;98146.97;;;6.28;100.00
54910;BME280;63189;51.240;9.964;2023-04-16T08:49:34;98132.34;;;6.21;100.00
54910;BME280;63189;51.240;9.964;2023-04-16T08:52:05;98153.03;;;6.27;100.00
54910;BME280;63189;51.240;9.964;2023-04-16T08:54:47;98153.88;;;6.27;100.00
54910;BME280;63189;51.240;9.964;2023-04-16T08:57:18;98152.13;;;6.28;100.00
54910;BME280;63189;51.240;9.964;2023-04-16T08:59:45;98152.97;;;6.30;100.00
54910;BME280;63189;51.240;9.964;2023-04-16T09:02:14;98162.50;;;6.28;100.00
54910;BME280;63189;51.240;9.964;2023-04-16T09:04:40;98151.31;;;6.26;100.00
54910;BME280;63189;51.240;9.964;2023-04-16T09:07:14;98168.56;;;6.27;100.00
54910;BME280;63189;51.240;9.964;2023-04-16T09:09:47;98153.03;;;6.25;100.00
54910;BME280;63189;51.240;9.964;2023-04-16T09:12:15;98155.66;;;6.21;100.00
54910;BME280;63189;51.240;9.964;2023-04-16T09:14:59;98159.97;;;6.22;100.00
54910;BME280;63189;51.240;9.964;2023-04-16T09:17:31;98161.75;;;6.17;100.00
54910;BME280;63189;51.240;9.964;2023-04-16T09:20:07;98165.19;;;6.19;100.00
54910;BME280;63189;51.240;9.964;2023-04-16T09:22:40;98157.41;;;6.19;100.00
54910;BME280;63189;51.240;9.964;2023-04-16T09:25:15;98159.16;;;6.17;100.00
54910;BME280;63189;51.240;9.964;2023-04-16T09:27:41;98164.34;;;6.17;100.00
54910;BME280;63189;51.240;9.964;2023-04-16T09:32:47;98185.84;;;6.22;100.00
54910;BME280;63189;51.240;9.964;2023-04-16T09:35:16;98182.38;;;6.23;100.00
54910;BME280;63189;51.240;9.964;2023-04-16T09:37:58;98179.84;;;6.20;100.00
54910;BME280;63189;51.240;9.964;2023-04-16T09:40:27;98183.28;;;6.20;100.00
54910;BME280;63189;51.240;9.964;2023-04-16T09:42:57;98186.72;;;6.21;100.00
54910;BME280;63189;51.240;9.964;2023-04-16T09:45:24;98185.00;;;6.21;100.00
54910;BME280;63189;51.240;9.964;2023-04-16T09:48:02;98196.19;;;6.22;100.00
54910;BME280;63189;51.240;9.964;2023-04-16T09:50:30;98190.22;;;6.17;100.00
54910;BME280;63189;51.240;9.964;2023-04-16T09:53:01;98194.50;;;6.21;100.00
54910;BME280;63189;51.240;9.964;2023-04-16T09:55:28;98185.88;;;6.19;100.00
54910;BME280;63189;51.240;9.964;2023-04-16T09:58:00;98193.56;;;6.25;100.00
54910;BME280;63189;51.240;9.964;2023-04-16T10:00:27;98198.75;;;6.25;100.00
54910;BME280;63189;51.240;9.964;2023-04-16T10:03:03;98203.94;;;6.26;100.00
54910;BME280;63189;51.240;9.964;2023-04-16T10:05:29;98206.53;;;6.25;100.00
54910;BME280;63189;51.240;9.964;2023-04-16T10:07:59;98209.94;;;6.30;100.00
54910;BME280;63189;51.240;9.964;2023-04-16T10:10:25;98213.38;;;6.32;100.00
54910;BME280;63189;51.240;9.964;2023-04-16T10:12:50;98220.25;;;6.34;100.00
54910;BME280;63189;51.240;9.964;2023-04-16T10:15:18;98220.25;;;6.36;100.00
54910;BME280;63189;51.240;9.964;2023-04-16T10:17:44;98226.25;;;6.40;100.00
54910;BME280;63189;51.240;9.964;2023-04-16T10:20:10;98218.47;;;6.40;100.00
54910;BME280;63189;51.240;9.964;2023-04-16T10:22:36;98224.53;;;6.39;100.00
54910;BME280;63189;51.240;9.964;2023-04-16T10:25:02;98218.50;;;6.35;100.00
54910;BME280;63189;51.240;9.964;2023-04-16T10:27:28;98225.44;;;6.36;100.00
54910;BME280;63189;51.240;9.964;2023-04-16T10:29:54;98226.25;;;6.40;100.00
54910;BME280;63189;51.240;9.964;2023-04-16T10:32:21;98232.28;;;6.40;100.00
54910;BME280;63189;51.240;9.964;2023-04-16T10:34:47;98236.59;;;6.41;100.00
54910;BME280;63189;51.240;9.964;2023-04-16T10:37:14;98240.03;;;6.42;100.00
54910;BME280;63189;51.240;9.964;2023-04-16T10:39:40;98241.72;;;6.46;100.00
54910;BME280;63189;51.240;9.964;2023-04-16T10:42:10;98239.13;;;6.47;100.00
54910;BME280;63189;51.240;9.964;2023-04-16T10:44:39;98240.84;;;6.48;100.00
54910;BME280;63189;51.240;9.964;2023-04-16T10:47:12;98244.28;;;6.50;100.00
54910;BME280;63189;51.240;9.964;2023-04-16T10:49:39;98235.69;;;6.48;100.00
54910;BME280;63189;51.240;9.964;2023-04-16T10:52:15;98234.78;;;6.51;100.00
54910;BME280;63189;51.240;9.964;2023-04-16T10:54:46;98239.94;;;6.52;100.00
54910;BME280;63189;51.240;9.964;2023-04-16T10:57:16;98253.72;;;6.56;100.00
54910;BME280;63189;51.240;9.964;2023-04-16T10:59:43;98250.25;;;6.58;100.00
54910;BME280;63189;51.240;9.964;2023-04-16T11:02:13;98251.09;;;6.60;100.00
54910;BME280;63189;51.240;9.964;2023-04-16T11:04:44;98252.84;;;6.58;100.00
54910;BME280;63189;51.240;9.964;2023-04-16T11:09:50;98255.41;;;6.61;100.00
54910;BME280;63189;51.240;9.964;2023-04-16T11:12:18;98251.13;;;6.57;100.00
54910;BME280;63189;51.240;9.964;2023-04-16T11:14:52;98258.84;;;6.62;100.00
54910;BME280;63189;51.240;9.964;2023-04-16T11:17:19;98262.31;;;6.61;100.00
54910;BME280;63189;51.240;9.964;2023-04-16T11:19:46;98257.09;;;6.62;100.00
54910;BME280;63189;51.240;9.964;2023-04-16T11:22:14;98251.06;;;6.63;100.00
54910;BME280;63189;51.240;9.964;2023-04-16T11:24:45;98251.94;;;6.61;100.00
54910;BME280;63189;51.240;9.964;2023-04-16T11:27:12;98262.28;;;6.64;100.00
54910;BME280;63189;51.240;9.964;2023-04-16T11:29:38;98263.97;;;6.65;100.00
54910;BME280;63189;51.240;9.964;2023-04-16T11:32:05;98264.88;;;6.62;100.00
54910;BME280;63189;51.240;9.964;2023-04-16T11:34:30;98266.56;;;6.66;100.00
54910;BME280;63189;51.240;9.964;2023-04-16T11:36:57;98274.31;;;6.70;100.00
54910;BME280;63189;51.240;9.964;2023-04-16T11:39:23;98272.59;;;6.70;100.00
54910;BME280;63189;51.240;9.964;2023-04-16T11:41:50;98276.06;;;6.69;100.00
54910;BME280;63189;51.240;9.964;2023-04-16T11:46:45;98275.16;;;6.72;100.00
54910;BME280;63189;51.240;9.964;2023-04-16T11:49:11;98277.75;;;6.72;100.00
54910;BME280;63189;51.240;9.964;2023-04-16T11:51:41;98274.25;;;6.74;100.00
54910;BME280;63189;51.240;9.964;2023-04-16T11:54:07;98276.84;;;6.76;100.00
54910;BME280;63189;51.240;9.964;2023-04-16T11:56:34;98280.31;;;6.75;100.00
54910;BME280;63189;51.240;9.964;2023-04-16T11:59:20;98279.44;;;6.74;100.00
54910;BME280;63189;51.240;9.964;2023-04-16T12:01:54;98282.91;;;6.75;100.00
54910;BME280;63189;51.240;9.964;2023-04-16T12:04:24;98282.09;;;6.70;100.00
54910;BME280;63189;51.240;9.964;2023-04-16T12:07:09;98275.16;;;6.72;100.00
54910;BME280;63189;51.240;9.964;2023-04-16T12:09:36;98283.81;;;6.71;100.00
54910;BME280;63189;51.240;9.964;2023-04-16T12:12:03;98287.25;;;6.73;100.00
54910;BME280;63189;51.240;9.964;2023-04-16T12:14:29;98288.94;;;6.74;100.00
54910;BME280;63189;51.240;9.964;2023-04-16T12:17:15;98283.72;;;6.77;100.00
54910;BME280;63189;51.240;9.964;2023-04-16T12:19:49;98288.06;;;6.78;100.00
54910;BME280;63189;51.240;9.964;2023-04-16T12:22:16;98291.50;;;6.80;100.00
54910;BME280;63189;51.240;9.964;2023-04-16T12:24:41;98288.06;;;6.76;100.00
54910;BME280;63189;51.240;9.964;2023-04-16T12:27:07;98292.38;;;6.79;100.00
54910;BME280;63189;51.240;9.964;2023-04-16T12:29:34;98288.91;;;6.77;100.00
54910;BME280;63189;51.240;9.964;2023-04-16T12:31:59;98288.91;;;6.77;100.00
54910;BME280;63189;51.240;9.964;2023-04-16T12:34:25;98285.50;;;6.73;100.00
54910;BME280;63189;51.240;9.964;2023-04-16T12:37:06;98295.88;;;6.72;100.00
54910;BME280;63189;51.240;9.964;2023-04-16T12:39:33;98289.00;;;6.69;100.00
54910;BME280;63189;51.240;9.964;2023-04-16T12:41:59;98295.03;;;6.70;100.00
54910;BME280;63189;51.240;9.964;2023-04-16T12:44:25;98306.28;;;6.70;100.00
54910;BME280;63189;51.240;9.964;2023-04-16T12:46:52;98303.72;;;6.67;100.00
54910;BME280;63189;51.240;9.964;2023-04-16T12:49:24;98304.56;;;6.66;100.00
54910;BME280;63189;51.240;9.964;2023-04-16T12:51:49;98305.41;;;6.66;100.00
54910;BME280;63189;51.240;9.964;2023-04-16T12:54:14;98300.25;;;6.65;100.00
54910;BME280;63189;51.240;9.964;2023-04-16T12:56:40;98297.66;;;6.68;100.00
54910;BME280;63189;51.240;9.964;2023-04-16T12:59:06;98296.81;;;6.68;100.00
54910;BME280;63189;51.240;9.964;2023-04-16T13:01:35;98298.53;;;6.64;100.00
54910;BME280;63189;51.240;9.964;2023-04-16T13:04:01;98301.97;;;6.69;100.00
54910;BME280;63189;51.240;9.964;2023-04-16T13:06:27;98294.22;;;6.68;100.00